Time;durP1;ratioP1;P1;durP2;ratioP2;P2;SDS_P1;SDS_P2;PMS_P1;PMS_P2;Temp;Humidity;BMP_temperature;BMP_pressure;BME280_temperature;BME280_humidity;BME280_pressure;Samples;Min_cycle;Max_cycle;Signal;HPM_P1;HPM_P2
2023/11/18 00:00:47;;;;;;;;;;;;;;;20.49;39.78;96316.72;10471766;28;2627;-54
2023/11/18 00:05:47;;;;;;;;;;;;;;;20.46;39.61;96321.72;10448232;28;2674;-53
2023/11/18 00:10:47;;;;;;;;;;;;;;;20.43;39.78;96325.66;10471584;28;3021;-54
2023/11/18 00:15:48;;;;;;;;;;;;;;;20.42;39.84;96326.72;10475595;28;5112;-54
2023/11/18 00:20:50;;;;;;;;;;;;;;;20.40;39.75;96322.75;10485715;28;2567;-55
2023/11/18 00:25:52;;;;;;;;;;;;;;;20.38;39.74;96325.63;10475730;28;2588;-54
2023/11/18 00:30:53;;;;;;;;;;;;;;;20.35;39.63;96320.88;10461426;28;2677;-54
2023/11/18 00:35:53;;;;;;;;;;;;;;;20.33;39.62;96323.00;10479027;28;2792;-54
2023/11/18 00:40:53;;;;;;;;;;;;;;;20.31;39.47;96335.63;10475973;28;2634;-53
2023/11/18 00:45:53;;;;;;;;;;;;;;;20.28;39.97;96339.56;10479626;28;2706;-54
2023/11/18 00:50:54;;;;;;;;;;;;;;;20.26;39.36;96333.75;10460962;28;2590;-55
2023/11/18 00:55:54;;;;;;;;;;;;;;;20.26;39.43;96344.28;10482342;28;2804;-53
2023/11/18 01:00:54;;;;;;;;;;;;;;;20.23;39.66;96344.00;10470217;28;2585;-51
2023/11/18 01:05:55;;;;;;;;;;;;;;;20.21;39.89;96346.09;10476908;28;2619;-53
2023/11/18 01:10:55;;;;;;;;;;;;;;;20.19;39.81;96346.38;10475642;28;2678;-54
2023/11/18 01:15:55;;;;;;;;;;;;;;;20.16;39.64;96344.22;10480119;28;5065;-51
2023/11/18 01:20:57;;;;;;;;;;;;;;;20.14;39.35;96340.25;10447753;28;2596;-53
2023/11/18 01:25:57;;;;;;;;;;;;;;;20.13;39.72;96338.69;10475118;28;2590;-56
2023/11/18 01:30:57;;;;;;;;;;;;;;;20.10;39.59;96350.50;10469577;28;2638;-53
2023/11/18 01:35:58;;;;;;;;;;;;;;;20.08;39.98;96352.59;10471816;28;2624;-56
2023/11/18 01:41:00;;;;;;;;;;;;;;;20.07;39.55;96355.50;10472903;28;2593;-52
2023/11/18 01:46:04;;;;;;;;;;;;;;;20.04;39.90;96367.31;10478786;28;2567;-52
2023/11/18 01:51:06;;;;;;;;;;;;;;;20.03;40.17;96372.84;10455696;28;2569;-53
2023/11/18 01:56:06;;;;;;;;;;;;;;;20.00;40.27;96373.34;10479898;28;2699;-54
2023/11/18 02:01:08;;;;;;;;;;;;;;;19.99;39.88;96377.78;10474070;28;2679;-53
2023/11/18 02:06:10;;;;;;;;;;;;;;;19.95;40.00;96368.03;10469368;28;2585;-55
2023/11/18 02:11:17;;;;;;;;;;;;;;;19.93;39.60;96370.91;10460565;28;2692;-53
2023/11/18 02:16:18;;;;;;;;;;;;;;;19.90;40.03;96370.66;10458461;28;5161;-56
2023/11/18 02:21:18;;;;;;;;;;;;;;;19.90;40.08;96381.16;10481100;28;2635;-54
2023/11/18 02:26:22;;;;;;;;;;;;;;;19.89;39.98;96379.56;10465498;28;2558;-55
2023/11/18 02:31:24;;;;;;;;;;;;;;;19.87;40.47;96381.66;10458157;28;2560;-53
2023/11/18 02:36:36;;;;;;;;;;;;;;;19.84;40.34;96374.28;10467480;28;2577;-55
2023/11/18 02:41:36;;;;;;;;;;;;;;;19.83;40.00;96377.94;10473276;28;2595;-53
2023/11/18 02:46:36;;;;;;;;;;;;;;;19.80;39.92;96381.91;10468894;28;2549;-56
2023/11/18 02:51:39;;;;;;;;;;;;;;;19.80;40.16;96383.75;10465199;28;2676;-53
2023/11/18 02:56:39;;;;;;;;;;;;;;;19.77;39.74;96374.50;10486248;28;2744;-53
2023/11/18 03:01:39;;;;;;;;;;;;;;;19.75;40.05;96373.97;10479940;28;2618;-53
2023/11/18 03:06:41;;;;;;;;;;;;;;;19.74;40.49;96387.38;10481317;28;2559;-53
2023/11/18 03:11:44;;;;;;;;;;;;;;;19.74;39.81;96382.13;10465514;28;2631;-54
2023/11/18 03:16:44;;;;;;;;;;;;;;;19.72;40.08;96389.47;10478582;28;5457;-53
2023/11/18 03:21:50;;;;;;;;;;;;;;;19.68;40.14;96397.06;10479812;28;2629;-54
2023/11/18 03:26:50;;;;;;;;;;;;;;;19.67;39.92;96402.56;10482901;28;2692;-54
2023/11/18 03:31:51;;;;;;;;;;;;;;;19.66;39.98;96403.63;10461394;28;2529;-51
2023/11/18 03:36:52;;;;;;;;;;;;;;;19.62;40.42;96407.81;10480224;28;2704;-52
2023/11/18 03:41:52;;;;;;;;;;;;;;;19.61;40.09;96409.63;10465209;28;2558;-55
2023/11/18 03:46:52;;;;;;;;;;;;;;;19.61;39.93;96411.47;10478891;28;2522;-52
2023/11/18 03:51:53;;;;;;;;;;;;;;;19.58;40.05;96425.13;10478543;28;2601;-53
2023/11/18 03:56:53;;;;;;;;;;;;;;;19.56;40.15;96425.38;10479962;28;2715;-56
2023/11/18 04:01:54;;;;;;;;;;;;;;;19.56;39.98;96435.13;10485780;28;2647;-56
2023/11/18 04:06:55;;;;;;;;;;;;;;;19.52;40.13;96426.91;10479937;28;2632;-53
2023/11/18 04:11:55;;;;;;;;;;;;;;;19.48;39.72;96426.63;10482521;28;5249;-54
2023/11/18 04:16:57;;;;;;;;;;;;;;;19.49;40.12;96430.06;10498780;28;2608;-52
2023/11/18 04:21:57;;;;;;;;;;;;;;;19.45;39.99;96429.75;10469195;28;2664;-53
2023/11/18 04:26:57;;;;;;;;;;;;;;;19.44;40.09;96419.47;10471372;28;2599;-54
2023/11/18 04:31:59;;;;;;;;;;;;;;;19.44;39.83;96424.75;10477629;28;2600;-53
2023/11/18 04:37:00;;;;;;;;;;;;;;;19.40;40.08;96424.44;10477509;28;2655;-56
2023/11/18 04:42:03;;;;;;;;;;;;;;;19.38;39.91;96426.53;10479291;28;2656;-54
2023/11/18 04:47:04;;;;;;;;;;;;;;;19.37;40.09;96419.69;10462358;28;2603;-54
2023/11/18 04:52:04;;;;;;;;;;;;;;;19.36;39.98;96418.09;10471137;28;2601;-52
2023/11/18 04:57:05;;;;;;;;;;;;;;;19.35;39.93;96421.75;10473788;28;2655;-54
2023/11/18 05:02:06;;;;;;;;;;;;;;;19.33;39.74;96423.06;10480569;28;2574;-53
2023/11/18 05:07:06;;;;;;;;;;;;;;;19.33;40.07;96429.09;10480926;28;2577;-54
2023/11/18 05:12:06;;;;;;;;;;;;;;;19.38;39.99;96426.53;10502124;28;5049;-51
2023/11/18 05:17:07;;;;;;;;;;;;;;;19.46;39.90;96433.16;10474731;28;2578;-54
2023/11/18 05:22:07;;;;;;;;;;;;;;;19.54;39.39;96431.94;10475118;28;2580;-54
2023/11/18 05:27:07;;;;;;;;;;;;;;;19.61;39.28;96417.53;10476543;28;2760;-54
2023/11/18 05:32:07;;;;;;;;;;;;;;;19.68;39.53;96415.47;10478241;28;2640;-52
2023/11/18 05:37:08;;;;;;;;;;;;;;;19.75;39.55;96404.72;10471842;28;2629;-52
2023/11/18 05:42:10;;;;;;;;;;;;;;;19.79;39.55;96416.34;10476936;28;2646;-52
2023/11/18 05:47:13;;;;;;;;;;;;;;;19.85;39.46;96417.97;10481359;28;2596;-52
2023/11/18 05:52:14;;;;;;;;;;;;;;;19.91;39.61;96419.56;10457726;28;2701;-53
2023/11/18 05:57:15;;;;;;;;;;;;;;;19.95;39.31;96425.91;10466172;28;2663;-51
2023/11/18 06:02:19;;;;;;;;;;;;;;;20.00;39.48;96433.84;10478348;28;2842;-54
2023/11/18 06:07:19;;;;;;;;;;;;;;;20.02;39.00;96448.34;10476976;28;2600;-55
2023/11/18 06:12:20;;;;;;;;;;;;;;;20.07;39.32;96450.22;10471735;28;5168;-54
2023/11/18 06:17:20;;;;;;;;;;;;;;;20.08;39.24;96462.34;10476514;28;2663;-54
2023/11/18 06:22:20;;;;;;;;;;;;;;;20.14;39.20;96456.06;10471288;28;2640;-54
2023/11/18 06:27:23;;;;;;;;;;;;;;;20.16;39.02;96459.22;10471024;28;2655;-53
2023/11/18 06:32:25;;;;;;;;;;;;;;;20.19;38.95;96458.72;10478368;28;2585;-53
2023/11/18 06:37:26;;;;;;;;;;;;;;;20.22;39.06;96468.78;10471049;28;2610;-54
2023/11/18 06:42:27;;;;;;;;;;;;;;;20.23;39.21;96465.91;10458048;28;2646;-56
2023/11/18 06:47:27;;;;;;;;;;;;;;;20.26;39.29;96459.31;10472672;28;2593;-52
2023/11/18 06:52:28;;;;;;;;;;;;;;;20.28;38.61;96455.38;10470906;28;2548;-54
2023/11/18 06:57:28;;;;;;;;;;;;;;;20.32;39.13;96460.16;10480020;28;2818;-54
2023/11/18 07:02:28;;;;;;;;;;;;;;;20.32;39.15;96462.78;10475652;28;2691;-56
2023/11/18 07:07:29;;;;;;;;;;;;;;;20.33;38.82;96464.38;10481051;28;2663;-52
2023/11/18 07:12:29;;;;;;;;;;;;;;;20.36;39.02;96467.28;10478244;28;5144;-56
2023/11/18 07:17:29;;;;;;;;;;;;;;;20.38;39.04;96467.81;10472376;28;2677;-55
2023/11/18 07:22:32;;;;;;;;;;;;;;;20.38;38.96;96467.81;10480544;28;2618;-53
2023/11/18 07:27:33;;;;;;;;;;;;;;;20.39;38.92;96466.78;10479433;28;2592;-55
2023/11/18 07:32:34;;;;;;;;;;;;;;;20.42;38.76;96468.13;10485959;28;2523;-56
2023/11/18 07:37:34;;;;;;;;;;;;;;;20.44;39.12;96482.63;10461851;28;3087;-52
2023/11/18 07:42:34;;;;;;;;;;;;;;;20.43;38.90;96485.47;10474467;28;2582;-56
2023/11/18 07:47:35;;;;;;;;;;;;;;;20.47;38.88;96486.56;10461550;28;2624;-55
2023/11/18 07:52:35;;;;;;;;;;;;;;;20.48;38.86;96483.69;10482086;28;2690;-53
2023/11/18 07:57:36;;;;;;;;;;;;;;;20.43;39.10;96481.03;10477663;28;2622;-55
2023/11/18 08:02:37;;;;;;;;;;;;;;;20.41;38.79;96474.41;10488273;28;2594;-54
2023/11/18 08:07:38;;;;;;;;;;;;;;;20.45;38.88;96475.50;10477924;28;2614;-53
2023/11/18 08:12:38;;;;;;;;;;;;;;;20.52;40.41;96490.03;10471686;28;5141;-57
2023/11/18 08:17:38;;;;;;;;;;;;;;;20.55;40.29;96484.25;10463080;28;2543;-54
2023/11/18 08:22:39;;;;;;;;;;;;;;;20.54;40.95;96482.69;10476592;28;2607;-54
2023/11/18 08:27:40;;;;;;;;;;;;;;;20.57;41.10;96476.88;10477505;28;2629;-53
2023/11/18 08:32:43;;;;;;;;;;;;;;;20.58;41.22;96491.66;10458058;28;2550;-55
2023/11/18 08:37:45;;;;;;;;;;;;;;;20.62;42.04;96503.25;10472543;28;2704;-56
2023/11/18 08:42:49;;;;;;;;;;;;;;;20.75;40.24;96504.66;10476563;28;2707;-55
2023/11/18 08:47:49;;;;;;;;;;;;;;;20.82;39.21;96500.72;10471880;28;2638;-56
2023/11/18 08:52:52;;;;;;;;;;;;;;;20.83;39.35;96489.16;10480041;28;2620;-54
2023/11/18 08:57:59;;;;;;;;;;;;;;;20.91;39.42;96485.22;10478717;28;2611;-55
2023/11/18 09:03:01;;;;;;;;;;;;;;;20.91;39.34;96487.84;10467642;28;2615;-55
2023/11/18 09:08:05;;;;;;;;;;;;;;;20.93;39.08;96485.75;10470770;28;2544;-52
2023/11/18 09:13:06;;;;;;;;;;;;;;;20.94;39.22;96477.56;10473712;28;4704;-55
2023/11/18 09:18:09;;;;;;;;;;;;;;;20.99;38.86;96480.25;10480515;28;2594;-55
2023/11/18 09:23:10;;;;;;;;;;;;;;;21.08;38.90;96482.41;10479860;28;2560;-58
2023/11/18 09:28:13;;;;;;;;;;;;;;;21.06;38.91;96480.81;10475233;28;2560;-56
2023/11/18 09:33:14;;;;;;;;;;;;;;;21.08;39.27;96479.78;10474976;28;2984;-57
2023/11/18 09:38:16;;;;;;;;;;;;;;;21.08;38.85;96483.97;10472644;28;2673;-55
2023/11/18 09:43:19;;;;;;;;;;;;;;;21.06;39.15;96487.94;10459551;28;2584;-53
2023/11/18 09:48:25;;;;;;;;;;;;;;;20.94;39.42;96482.84;10453920;28;2735;-55
2023/11/18 09:53:25;;;;;;;;;;;;;;;20.83;39.76;96481.25;10486350;28;2684;-54
2023/11/18 09:58:26;;;;;;;;;;;;;;;20.74;39.86;96487.25;10467059;28;2586;-53
2023/11/18 10:03:27;;;;;;;;;;;;;;;20.66;39.98;96485.88;10458199;28;2636;-55
2023/11/18 10:08:30;;;;;;;;;;;;;;;20.62;40.18;96471.66;10472299;28;2589;-54
2023/11/18 10:13:34;;;;;;;;;;;;;;;20.56;40.48;96467.41;10456365;28;4617;-57
2023/11/18 10:18:37;;;;;;;;;;;;;;;20.52;40.49;96466.34;10480183;28;2511;-56
2023/11/18 10:23:37;;;;;;;;;;;;;;;20.54;40.58;96456.34;10477514;28;2714;-56
2023/11/18 10:28:37;;;;;;;;;;;;;;;20.50;41.15;96439.47;10460187;28;2671;-57
2023/11/18 10:33:38;;;;;;;;;;;;;;;20.48;41.23;96449.47;10470300;28;2627;-55
2023/11/18 10:38:43;;;;;;;;;;;;;;;20.45;41.17;96436.78;10482506;28;2631;-57
2023/11/18 10:43:44;;;;;;;;;;;;;;;20.44;41.52;96431.78;10480219;28;2641;-55
2023/11/18 10:48:47;;;;;;;;;;;;;;;20.42;41.33;96432.06;10477190;28;2776;-56
2023/11/18 10:53:53;;;;;;;;;;;;;;;20.39;41.21;96452.81;10481246;28;2652;-55
2023/11/18 10:58:57;;;;;;;;;;;;;;;20.35;41.34;96452.53;10481036;28;2607;-51
2023/11/18 11:03:58;;;;;;;;;;;;;;;20.31;41.40;96451.47;10475399;28;2611;-57
2023/11/18 11:08:58;;;;;;;;;;;;;;;20.30;41.64;96444.59;10459580;28;2695;-55
2023/11/18 11:14:03;;;;;;;;;;;;;;;20.29;41.21;96448.28;10473700;28;2565;-57
2023/11/18 11:19:08;;;;;;;;;;;;;;;20.24;41.92;96442.97;10453328;28;2635;-57
2023/11/18 11:24:12;;;;;;;;;;;;;;;20.20;41.94;96445.34;10466278;28;2647;-55
2023/11/18 11:29:12;;;;;;;;;;;;;;;20.18;41.99;96457.13;10479955;28;2623;-55
2023/11/18 11:34:20;;;;;;;;;;;;;;;20.16;42.15;96457.41;10479291;28;2615;-56
2023/11/18 11:39:29;;;;;;;;;;;;;;;20.16;42.74;96464.50;10493933;28;2640;-54
2023/11/18 11:44:30;;;;;;;;;;;;;;;20.16;42.54;96453.97;10481400;28;2633;-56
2023/11/18 11:49:34;;;;;;;;;;;;;;;20.17;43.11;96450.28;10436210;28;2604;-52
2023/11/18 11:54:37;;;;;;;;;;;;;;;20.15;43.12;96431.34;10470670;28;2683;-54
2023/11/18 11:59:51;;;;;;;;;;;;;;;20.13;43.19;96434.19;10448395;28;2645;-54
2023/11/18 12:04:54;;;;;;;;;;;;;;;20.12;43.15;96424.72;10478794;28;2549;-50
2023/11/18 12:10:01;;;;;;;;;;;;;;;20.08;43.68;96417.59;10460001;28;1974;-55
2023/11/18 12:15:11;;;;;;;;;;;;;;;20.09;43.23;96413.94;10475361;28;4578;-55
2023/11/18 12:20:33;;;;;;;;;;;;;;;20.05;43.46;96410.22;10482273;28;2026;-53
2023/11/18 12:25:36;;;;;;;;;;;;;;;20.06;43.18;96411.78;10485295;28;1787;-51
2023/11/18 12:30:38;;;;;;;;;;;;;;;20.02;43.19;96405.44;10485558;28;1537;-52
2023/11/18 12:35:39;;;;;;;;;;;;;;;20.01;43.34;96398.63;10481174;28;1963;-52
2023/11/18 12:40:51;;;;;;;;;;;;;;;19.99;43.37;96390.94;10483006;28;1843;-54
2023/11/18 12:46:01;;;;;;;;;;;;;;;19.99;43.15;96371.75;10472345;28;1432;-51
2023/11/18 12:51:01;;;;;;;;;;;;;;;19.96;43.19;96365.16;10474614;28;1718;-53
2023/11/18 12:56:01;;;;;;;;;;;;;;;19.96;43.21;96365.16;10479766;28;2556;-46
2023/11/18 13:01:02;;;;;;;;;;;;;;;19.93;43.12;96360.41;10479384;28;1832;-52
2023/11/18 13:06:05;;;;;;;;;;;;;;;19.92;43.12;96369.34;10462765;28;1488;-52
2023/11/18 13:11:12;;;;;;;;;;;;;;;19.90;42.97;96353.03;10478753;28;1601;-54
2023/11/18 13:16:14;;;;;;;;;;;;;;;19.89;43.00;96348.78;10456889;28;4669;-54
2023/11/18 13:21:16;;;;;;;;;;;;;;;19.86;43.08;96345.88;10476902;28;1503;-53
2023/11/18 13:26:16;;;;;;;;;;;;;;;19.83;42.95;96334.03;10473054;28;1758;-52
2023/11/18 13:31:17;;;;;;;;;;;;;;;19.85;42.78;96324.03;10474119;28;1605;-54
2023/11/18 13:36:17;;;;;;;;;;;;;;;19.84;43.05;96329.56;10475431;28;1902;-53
2023/11/18 13:41:32;;;;;;;;;;;;;;;19.82;43.12;96327.19;10483616;28;1544;-53
2023/11/18 13:46:33;;;;;;;;;;;;;;;19.80;42.69;96312.72;10472850;28;1475;-54
2023/11/18 13:51:35;;;;;;;;;;;;;;;19.79;43.03;96326.91;10461706;28;1575;-54
2023/11/18 13:56:36;;;;;;;;;;;;;;;19.76;42.65;96325.59;10474452;28;1961;-53
2023/11/18 14:01:37;;;;;;;;;;;;;;;19.73;42.78;96322.66;10484929;28;1689;-52
2023/11/18 14:06:39;;;;;;;;;;;;;;;19.70;42.50;96312.66;10481732;28;2354;-54
2023/11/18 14:11:39;;;;;;;;;;;;;;;19.69;42.68;96309.22;10485000;28;1546;-52
2023/11/18 14:16:40;;;;;;;;;;;;;;;19.70;42.86;96302.91;10497644;28;4748;-54
2023/11/18 14:21:43;;;;;;;;;;;;;;;19.68;42.92;96310.25;10489343;28;1844;-52
2023/11/18 14:26:46;;;;;;;;;;;;;;;19.67;42.55;96315.78;10475346;28;1722;-54
2023/11/18 14:31:47;;;;;;;;;;;;;;;19.67;42.84;96302.63;10490514;28;1465;-53
2023/11/18 14:36:47;;;;;;;;;;;;;;;19.67;42.73;96289.47;10503052;28;1913;-53
2023/11/18 14:41:47;;;;;;;;;;;;;;;19.67;42.52;96289.47;10492173;28;1480;-52
2023/11/18 14:46:48;;;;;;;;;;;;;;;19.72;42.56;96281.63;10473733;28;1702;-55
2023/11/18 14:51:48;;;;;;;;;;;;;;;19.76;42.43;96311.63;10490357;28;1435;-52
2023/11/18 14:56:49;;;;;;;;;;;;;;;19.82;42.15;96300.09;10489179;28;1906;-54
2023/11/18 15:01:49;;;;;;;;;;;;;;;19.86;42.27;96280.91;10460147;28;2284;-55
2023/11/18 15:06:53;;;;;;;;;;;;;;;19.91;42.17;96270.41;10488270;28;1485;-52
2023/11/18 15:11:53;;;;;;;;;;;;;;;19.95;41.97;96270.66;10494774;28;1528;-54
2023/11/18 15:16:54;;;;;;;;;;;;;;;19.99;41.84;96272.53;10491683;28;4986;-56
2023/11/18 15:21:54;;;;;;;;;;;;;;;20.03;41.87;96257.06;10491811;28;1562;-55
2023/11/18 15:26:55;;;;;;;;;;;;;;;20.05;41.86;96232.03;10479986;28;1868;-56
2023/11/18 15:31:55;;;;;;;;;;;;;;;20.08;41.82;96228.91;10486418;28;1512;-52
2023/11/18 15:36:55;;;;;;;;;;;;;;;20.10;41.76;96220.75;10479197;28;1909;-56
2023/11/18 15:41:57;;;;;;;;;;;;;;;20.15;41.47;96220.75;10496377;28;1691;-53
2023/11/18 15:46:57;;;;;;;;;;;;;;;20.16;41.35;96196.00;10490229;28;1485;-55
2023/11/18 15:51:57;;;;;;;;;;;;;;;20.18;42.08;96199.16;10489512;28;1408;-56
2023/11/18 15:56:58;;;;;;;;;;;;;;;20.22;41.55;96218.69;10493041;28;2295;-53
2023/11/18 16:01:58;;;;;;;;;;;;;;;20.22;41.70;96210.78;10488244;28;1521;-55
2023/11/18 16:06:58;;;;;;;;;;;;;;;20.25;41.38;96210.28;10487797;28;1539;-53
2023/11/18 16:11:59;;;;;;;;;;;;;;;20.26;41.74;96225.81;10485412;28;4641;-54
2023/11/18 16:16:59;;;;;;;;;;;;;;;20.27;41.59;96227.41;10471333;28;1977;-54
2023/11/18 16:21:59;;;;;;;;;;;;;;;20.32;41.20;96216.06;10460973;28;1556;-55
2023/11/18 16:27:00;;;;;;;;;;;;;;;20.39;41.22;96200.84;10476967;28;1673;-55
2023/11/18 16:32:00;;;;;;;;;;;;;;;20.56;40.80;96177.69;10477776;28;1570;-53
2023/11/18 16:37:01;;;;;;;;;;;;;;;20.69;39.55;96174.50;10480144;28;1902;-54
2023/11/18 16:42:02;;;;;;;;;;;;;;;20.77;39.09;96181.88;10481996;28;1508;-54
2023/11/18 16:47:02;;;;;;;;;;;;;;;20.88;38.65;96175.56;10481363;28;1556;-54
2023/11/18 16:52:04;;;;;;;;;;;;;;;20.95;38.71;96194.53;10484599;28;1540;-54
2023/11/18 16:57:05;;;;;;;;;;;;;;;21.03;38.44;96193.25;10485895;28;1914;-58
2023/11/18 17:02:05;;;;;;;;;;;;;;;21.10;38.27;96183.22;10486143;28;1487;-54
2023/11/18 17:07:06;;;;;;;;;;;;;;;21.16;38.29;96213.78;10479928;28;1735;-51
2023/11/18 17:12:06;;;;;;;;;;;;;;;21.20;38.20;96222.75;10484237;28;4681;-54
2023/11/18 17:17:08;;;;;;;;;;;;;;;21.24;38.17;96226.44;10469421;28;1985;-57
2023/11/18 17:22:10;;;;;;;;;;;;;;;21.28;38.10;96224.03;10478933;28;2217;-54
2023/11/18 17:27:10;;;;;;;;;;;;;;;21.36;37.97;96216.38;10457686;28;2577;-55
2023/11/18 17:32:12;;;;;;;;;;;;;;;21.38;37.72;96210.84;10469778;28;2552;-56
2023/11/18 17:37:12;;;;;;;;;;;;;;;21.41;37.58;96205.81;10468909;28;2598;-54
2023/11/18 17:42:12;;;;;;;;;;;;;;;21.45;37.62;96206.09;10472664;28;2688;-56
2023/11/18 17:47:13;;;;;;;;;;;;;;;21.47;37.75;96203.97;10478113;28;2592;-56
2023/11/18 17:52:14;;;;;;;;;;;;;;;21.53;37.53;96195.00;10472221;28;2017;-52
2023/11/18 17:57:15;;;;;;;;;;;;;;;21.51;37.42;96195.25;10472797;28;1981;-54
2023/11/18 18:02:15;;;;;;;;;;;;;;;21.54;37.33;96197.34;10475884;28;1870;-54
2023/11/18 18:07:15;;;;;;;;;;;;;;;21.58;37.42;96189.69;10458639;28;1783;-54
2023/11/18 18:12:15;;;;;;;;;;;;;;;21.65;37.19;96198.91;10480562;28;4665;-54
2023/11/18 18:17:16;;;;;;;;;;;;;;;21.63;37.55;96202.88;10476580;28;2571;-55
2023/11/18 18:22:16;;;;;;;;;;;;;;;21.56;37.20;96197.06;10469403;28;2661;-53
2023/11/18 18:27:19;;;;;;;;;;;;;;;21.45;37.48;96188.41;10479924;28;2540;-55
2023/11/18 18:32:19;;;;;;;;;;;;;;;21.34;37.60;96184.22;10471689;28;2623;-54
2023/11/18 18:37:22;;;;;;;;;;;;;;;21.29;37.75;96175.53;10472507;28;2661;-55
2023/11/18 18:42:22;;;;;;;;;;;;;;;21.19;37.78;96167.63;10477541;28;2644;-56
2023/11/18 18:47:22;;;;;;;;;;;;;;;21.14;37.91;96165.81;10480121;28;2774;-55
2023/11/18 18:52:22;;;;;;;;;;;;;;;21.11;37.92;96152.34;10476134;28;2555;-56
2023/11/18 18:57:24;;;;;;;;;;;;;;;21.05;38.32;96148.94;10460814;28;2541;-55
2023/11/18 19:02:24;;;;;;;;;;;;;;;21.03;38.12;96143.97;10488532;28;2570;-53
2023/11/18 19:07:28;;;;;;;;;;;;;;;20.98;38.54;96151.81;10465864;28;2608;-55
2023/11/18 19:12:29;;;;;;;;;;;;;;;20.96;38.70;96147.88;10483008;28;4673;-55
2023/11/18 19:17:29;;;;;;;;;;;;;;;20.94;38.96;96156.06;10480318;28;2640;-54
2023/11/18 19:22:29;;;;;;;;;;;;;;;20.92;38.94;96136.28;10472561;28;2636;-56
2023/11/18 19:27:30;;;;;;;;;;;;;;;20.89;39.00;96129.72;10485830;28;2621;-55
2023/11/18 19:32:31;;;;;;;;;;;;;;;20.89;39.12;96119.19;10478276;28;2626;-54
2023/11/18 19:37:33;;;;;;;;;;;;;;;20.88;38.86;96088.59;10483687;28;3775;-55
2023/11/18 19:42:33;;;;;;;;;;;;;;;20.87;38.82;96063.31;10480651;28;2579;-53
2023/11/18 19:47:35;;;;;;;;;;;;;;;20.86;39.08;96066.22;10485046;28;2569;-53
2023/11/18 19:52:35;;;;;;;;;;;;;;;20.86;39.00;96048.56;10480663;28;2620;-55
2023/11/18 19:57:35;;;;;;;;;;;;;;;20.85;39.02;96056.75;10477339;28;2605;-55
2023/11/18 20:02:37;;;;;;;;;;;;;;;20.84;38.84;96050.66;10482210;28;2571;-55
2023/11/18 20:07:38;;;;;;;;;;;;;;;20.84;39.08;96058.56;10483258;28;2654;-55
2023/11/18 20:12:39;;;;;;;;;;;;;;;20.84;38.47;96071.75;10493446;28;4791;-55
2023/11/18 20:17:40;;;;;;;;;;;;;;;20.84;38.97;96069.13;10472489;28;2602;-55
2023/11/18 20:22:41;;;;;;;;;;;;;;;20.84;39.06;96061.22;10475220;28;2682;-55
2023/11/18 20:27:41;;;;;;;;;;;;;;;20.84;38.47;96032.22;10467516;28;3026;-54
2023/11/18 20:32:43;;;;;;;;;;;;;;;20.85;38.74;96010.09;10475322;28;2618;-54
2023/11/18 20:37:47;;;;;;;;;;;;;;;20.83;38.76;95980.59;10483369;28;2587;-56
2023/11/18 20:42:48;;;;;;;;;;;;;;;20.82;38.81;95981.66;10487466;28;2592;-55
2023/11/18 20:47:51;;;;;;;;;;;;;;;20.81;38.96;95952.94;10465738;28;2615;-55
2023/11/18 20:52:51;;;;;;;;;;;;;;;20.77;39.06;95947.41;10465377;28;2668;-55
2023/11/18 20:57:51;;;;;;;;;;;;;;;20.77;38.76;95946.63;10481603;28;2668;-54
2023/11/18 21:02:52;;;;;;;;;;;;;;;20.73;39.05;95927.94;10478396;28;2998;-55
2023/11/18 21:07:52;;;;;;;;;;;;;;;20.74;38.80;95929.53;10471642;28;2687;-54
2023/11/18 21:12:52;;;;;;;;;;;;;;;20.72;38.54;95915.84;10470187;28;4590;-56
2023/11/18 21:17:53;;;;;;;;;;;;;;;20.68;38.90;95906.91;10473545;28;2593;-55
2023/11/18 21:22:54;;;;;;;;;;;;;;;20.63;38.89;95877.94;10479128;28;2584;-55
2023/11/18 21:27:54;;;;;;;;;;;;;;;20.60;38.85;95851.34;10456480;28;2629;-55
2023/11/18 21:32:58;;;;;;;;;;;;;;;20.56;38.59;95835.31;10476171;28;2581;-55
2023/11/18 21:37:58;;;;;;;;;;;;;;;20.53;38.77;95833.22;10477101;28;2635;-54
2023/11/18 21:42:59;;;;;;;;;;;;;;;20.52;38.54;95815.84;10477752;28;2799;-56
2023/11/18 21:47:59;;;;;;;;;;;;;;;20.52;38.82;95804.53;10475251;28;2558;-55
2023/11/18 21:53:02;;;;;;;;;;;;;;;20.48;39.02;95809.56;10475400;28;2544;-55
2023/11/18 21:58:02;;;;;;;;;;;;;;;20.45;38.77;95796.13;10476282;28;2774;-55
2023/11/18 22:03:04;;;;;;;;;;;;;;;20.42;38.55;95780.88;10481513;28;2607;-54
2023/11/18 22:08:07;;;;;;;;;;;;;;;20.37;38.76;95775.63;10468010;28;2612;-53
2023/11/18 22:13:07;;;;;;;;;;;;;;;20.34;38.76;95791.97;10443433;28;2931;-55
2023/11/18 22:18:10;;;;;;;;;;;;;;;20.31;38.96;95795.94;10476966;28;2533;-54
2023/11/18 22:23:11;;;;;;;;;;;;;;;20.29;38.92;95805.94;10473505;28;2639;-52
2023/11/18 22:28:11;;;;;;;;;;;;;;;20.25;39.28;95794.38;10480514;28;2771;-54
2023/11/18 22:33:13;;;;;;;;;;;;;;;20.22;39.24;95789.66;10482163;28;2628;-55
2023/11/18 22:38:13;;;;;;;;;;;;;;;20.22;39.31;95800.16;10484807;28;2627;-54
2023/11/18 22:43:14;;;;;;;;;;;;;;;20.18;39.27;95799.91;10478106;28;2649;-54
2023/11/18 22:48:14;;;;;;;;;;;;;;;20.13;39.04;95785.97;10481280;28;2679;-54
2023/11/18 22:53:16;;;;;;;;;;;;;;;20.08;39.11;95768.38;10467862;28;2639;-55
2023/11/18 22:58:17;;;;;;;;;;;;;;;20.08;39.03;95764.94;10487192;28;2663;-55
2023/11/18 23:03:20;;;;;;;;;;;;;;;20.05;39.13;95758.38;10478158;28;2712;-56
2023/11/18 23:08:21;;;;;;;;;;;;;;;20.02;39.24;95755.50;10475118;28;2560;-55
2023/11/18 23:13:23;;;;;;;;;;;;;;;20.03;39.55;95751.81;10476983;28;4621;-52
2023/11/18 23:18:23;;;;;;;;;;;;;;;20.06;39.45;95746.00;10478350;28;2678;-54
2023/11/18 23:23:24;;;;;;;;;;;;;;;20.11;39.00;95744.13;10476984;28;2656;-53
2023/11/18 23:28:24;;;;;;;;;;;;;;;20.06;38.95;95733.63;10481325;28;2728;-54
2023/11/18 23:33:25;;;;;;;;;;;;;;;20.10;39.22;95739.13;10480718;28;2613;-52
2023/11/18 23:38:28;;;;;;;;;;;;;;;20.10;39.00;95720.72;10479329;28;2886;-52
2023/11/18 23:43:34;;;;;;;;;;;;;;;20.08;39.19;95720.19;10477738;28;2606;-54
2023/11/18 23:48:36;;;;;;;;;;;;;;;20.10;39.08;95712.81;10475605;28;2755;-54
2023/11/18 23:53:39;;;;;;;;;;;;;;;20.08;39.15;95709.69;10471010;28;2642;-54
2023/11/18 23:58:39;;;;;;;;;;;;;;;20.11;39.42;95712.53;10475661;28;2599;-55
